Time;durP1;ratioP1;P1;durP2;ratioP2;P2;SDS_P1;SDS_P2;PMS_P1;PMS_P2;Temp;Humidity;BMP_temperature;BMP_pressure;BME280_temperature;BME280_humidity;BME280_pressure;Samples;Min_cycle;Max_cycle;Signal;HPM_P1;HPM_P2
2022/01/17 00:00:02;;;;;;;4.43;1.42;;;;;;;16.59;61.43;99633.03;3165686;27;20048;-53
2022/01/17 00:01:35;;;;;;;4.30;2.00;;;;;;;16.56;61.38;99633.34;3165652;27;20587;-49
2022/01/17 00:03:06;;;;;;;8.02;2.00;;;;;;;16.55;61.40;99637.06;3164470;27;20501;-54
2022/01/17 00:04:38;;;;;;;4.22;1.80;;;;;;;16.55;61.30;99639.72;3163656;28;20050;-52
2022/01/17 00:06:10;;;;;;;2.85;1.60;;;;;;;16.52;61.39;99635.53;3160745;28;20047;-52
2022/01/17 00:07:42;;;;;;;1.85;1.55;;;;;;;16.51;61.56;99639.19;3165302;28;20048;-49
2022/01/17 00:09:14;;;;;;;2.08;1.63;;;;;;;16.50;61.51;99632.19;3164576;28;20054;-52
2022/01/17 00:10:46;;;;;;;6.65;3.45;;;;;;;16.48;61.32;99641.38;3165430;28;20055;-52
2022/01/17 00:12:18;;;;;;;3.22;1.70;;;;;;;16.47;61.32;99635.19;3161713;28;20466;-53
2022/01/17 00:13:50;;;;;;;3.88;1.65;;;;;;;16.46;61.55;99638.03;3163473;27;20128;-51
2022/01/17 00:15:29;;;;;;;2.95;1.88;;;;;;;16.43;61.50;99633.81;3164255;28;20043;-53
2022/01/17 00:17:10;;;;;;;3.60;1.95;;;;;;;16.42;61.47;99629.50;3164710;28;20043;-54
2022/01/17 00:20:32;;;;;;;2.92;1.77;;;;;;;16.40;61.54;99633.34;3164934;28;20047;-54
2022/01/17 00:22:04;;;;;;;3.88;1.75;;;;;;;16.38;61.60;99633.50;3162998;28;20048;-53
2022/01/17 00:23:36;;;;;;;3.67;1.83;;;;;;;16.36;61.62;99632.84;3166322;28;20044;-49
2022/01/17 00:25:08;;;;;;;6.05;1.88;;;;;;;16.36;61.60;99629.31;3163238;28;20055;-54
2022/01/17 00:26:41;;;;;;;2.72;1.73;;;;;;;16.37;61.54;99633.66;3165498;28;20050;-53
2022/01/17 00:28:12;;;;;;;3.60;1.60;;;;;;;16.36;61.44;99646.22;3165099;28;20128;-52
2022/01/17 00:29:44;;;;;;;3.22;1.65;;;;;;;16.35;61.66;99638.34;3163522;28;20052;-52
2022/01/17 00:31:18;;;;;;;3.33;1.50;;;;;;;16.31;61.43;99638.66;3163941;28;20043;-53
2022/01/17 00:32:49;;;;;;;3.35;2.67;;;;;;;16.31;61.47;99641.34;3165349;28;20051;-53
2022/01/17 00:34:21;;;;;;;2.63;1.48;;;;;;;16.29;61.52;99642.50;3164039;28;20048;-49
2022/01/17 00:35:53;;;;;;;6.90;2.20;;;;;;;16.27;61.63;99650.72;3166055;27;20058;-54
2022/01/17 00:37:25;;;;;;;2.03;1.50;;;;;;;16.26;61.63;99646.34;3164472;28;20051;-54
2022/01/17 00:38:57;;;;;;;3.03;1.67;;;;;;;16.25;61.71;99649.22;3164864;28;20097;-52
2022/01/17 00:40:29;;;;;;;3.08;1.95;;;;;;;16.23;61.71;99646.69;3165720;28;20655;-51
2022/01/17 00:42:01;;;;;;;2.45;1.95;;;;;;;16.22;61.63;99652.22;3164819;28;20055;-54
2022/01/17 00:43:34;;;;;;;4.00;1.90;;;;;;;16.21;61.72;99650.53;3163903;28;20043;-50
2022/01/17 00:45:08;;;;;;;4.90;2.30;;;;;;;16.19;61.76;99648.03;3163722;28;20039;-50
2022/01/17 00:46:41;;;;;;;3.70;1.40;;;;;;;16.20;61.71;99646.19;3162881;28;20052;-53
2022/01/17 00:48:13;;;;;;;4.18;1.98;;;;;;;16.18;61.61;99632.13;3164707;28;20048;-50
2022/01/17 00:49:45;;;;;;;2.42;1.90;;;;;;;16.18;61.56;99640.97;3165267;28;20059;-51
2022/01/17 00:51:17;;;;;;;3.15;2.20;;;;;;;16.15;61.72;99649.34;3165030;28;20508;-50
2022/01/17 00:52:49;;;;;;;3.40;2.58;;;;;;;16.13;61.76;99642.47;3164873;28;20051;-49
2022/01/17 00:54:20;;;;;;;3.35;1.38;;;;;;;16.13;61.55;99643.31;3162059;28;20047;-53
2022/01/17 00:55:52;;;;;;;2.70;1.73;;;;;;;16.12;61.60;99636.28;3163537;28;20048;-50
2022/01/17 00:57:24;;;;;;;2.80;1.63;;;;;;;16.10;61.75;99638.28;3164622;28;20044;-54
2022/01/17 00:58:56;;;;;;;1.83;1.52;;;;;;;16.09;61.61;99641.97;3164784;28;20051;-54
2022/01/17 01:00:27;;;;;;;5.10;2.08;;;;;;;16.08;61.70;99651.84;3163438;28;20055;-51
2022/01/17 01:02:01;;;;;;;2.55;1.48;;;;;;;16.06;61.68;99650.31;3162753;28;20052;-53
2022/01/17 01:03:33;;;;;;;2.00;1.75;;;;;;;16.06;61.65;99653.00;3163319;28;20047;-51
2022/01/17 01:05:06;;;;;;;4.93;1.77;;;;;;;16.05;61.77;99646.81;3164047;28;20051;-52
2022/01/17 01:06:38;;;;;;;3.17;2.70;;;;;;;16.04;61.78;99647.78;3157547;28;20393;-53
2022/01/17 01:08:10;;;;;;;3.70;1.55;;;;;;;16.03;61.75;99646.13;3164465;28;20044;-53
2022/01/17 01:09:51;;;;;;;3.10;1.85;;;;;;;16.01;61.73;99645.44;3166291;27;20031;-53
2022/01/17 01:11:23;;;;;;;4.07;1.77;;;;;;;16.00;61.63;99653.66;3163943;28;20050;-50
2022/01/17 01:12:54;;;;;;;2.20;1.83;;;;;;;16.00;61.82;99659.00;3164872;28;20052;-51
2022/01/17 01:14:26;;;;;;;5.95;1.98;;;;;;;15.98;61.82;99661.81;3162125;28;20040;-48
2022/01/17 01:16:21;;;;;;;3.78;1.70;;;;;;;15.97;61.80;99652.13;3165259;28;20058;-53
2022/01/17 01:17:56;;;;;;;3.10;1.50;;;;;;;15.96;61.71;99653.09;3165468;28;20053;-53
2022/01/17 01:19:31;;;;;;;4.32;2.15;;;;;;;15.95;61.65;99653.28;3163794;28;20052;-50
2022/01/17 01:21:44;;;;;;;2.13;1.52;;;;;;;15.94;61.68;99651.63;3161348;28;20043;-51
2022/01/17 01:28:45;;;;;;;1.38;1.27;;;;;;;15.90;61.82;99664.47;3164053;28;20040;-49
2022/01/17 01:30:19;;;;;;;1.65;1.10;;;;;;;15.90;61.61;99655.59;3159765;28;20050;-51
2022/01/17 01:31:54;;;;;;;2.38;1.88;;;;;;;15.88;61.74;99655.78;3164578;28;20042;-51
2022/01/17 01:33:32;;;;;;;1.73;1.35;;;;;;;15.87;61.71;99656.75;3164129;28;20043;-54
2022/01/17 01:35:09;;;;;;;2.05;1.23;;;;;;;15.84;62.00;99663.28;3163082;28;20679;-51
2022/01/17 01:36:42;;;;;;;1.85;1.42;;;;;;;15.83;61.95;99658.09;3165731;27;20118;-51
2022/01/17 01:38:13;;;;;;;2.63;1.73;;;;;;;15.83;61.62;99653.56;3162562;28;20511;-54
2022/01/17 01:39:46;;;;;;;2.10;1.73;;;;;;;15.85;61.80;99650.72;3165356;28;20047;-54
2022/01/17 01:41:18;;;;;;;3.65;1.98;;;;;;;15.83;61.56;99648.22;3163831;28;20052;-53
2022/01/17 01:42:52;;;;;;;4.43;2.15;;;;;;;15.81;61.73;99638.69;3164971;28;20043;-51
2022/01/17 01:44:25;;;;;;;3.05;1.40;;;;;;;15.81;61.70;99644.88;3156728;28;20129;-53
2022/01/17 01:46:00;;;;;;;4.25;2.17;;;;;;;15.80;61.61;99643.19;3163250;28;20047;-53
2022/01/17 01:47:31;;;;;;;1.63;1.50;;;;;;;15.79;61.59;99644.19;3164356;28;20036;-51
2022/01/17 01:49:04;;;;;;;2.55;1.48;;;;;;;15.78;61.63;99652.38;3163830;28;20059;-49
2022/01/17 01:50:36;;;;;;;2.65;1.80;;;;;;;15.77;61.64;99650.72;3164822;28;20047;-53
2022/01/17 01:52:07;;;;;;;2.70;1.20;;;;;;;15.77;61.62;99651.56;3164324;28;20054;-51
2022/01/17 01:53:39;;;;;;;2.75;2.00;;;;;;;15.74;61.81;99659.91;3162132;28;20055;-47
2022/01/17 01:55:13;;;;;;;2.92;1.98;;;;;;;15.74;61.58;99665.25;3162793;28;20047;-52
2022/01/17 01:56:46;;;;;;;3.22;1.50;;;;;;;15.74;61.57;99667.94;3164704;28;20131;-54
2022/01/17 01:58:20;;;;;;;3.33;1.92;;;;;;;15.73;61.62;99665.41;3162452;28;20040;-51
2022/01/17 01:59:53;;;;;;;3.45;1.55;;;;;;;15.72;61.78;99677.94;3161446;28;20044;-51
2022/01/17 02:01:25;;;;;;;2.15;1.92;;;;;;;15.70;61.84;99674.56;3162185;28;20235;-53
2022/01/17 02:02:57;;;;;;;2.80;1.42;;;;;;;15.69;61.81;99670.22;3161783;28;20089;-50
2022/01/17 02:04:30;;;;;;;3.00;1.60;;;;;;;15.68;61.70;99668.53;3160945;28;20594;-51
2022/01/17 02:06:02;;;;;;;1.95;1.52;;;;;;;15.68;61.68;99670.34;3164391;28;20138;-51
2022/01/17 02:07:34;;;;;;;2.85;1.75;;;;;;;15.66;61.69;99665.19;3160333;28;20044;-53
2022/01/17 02:09:06;;;;;;;4.85;1.95;;;;;;;15.67;61.82;99682.06;3162832;28;20056;-49
2022/01/17 02:10:38;;;;;;;4.57;1.48;;;;;;;15.65;61.73;99676.84;3160163;28;20069;-52
2022/01/17 02:12:10;;;;;;;2.75;1.25;;;;;;;15.62;61.80;99666.47;3163575;28;20055;-52
2022/01/17 02:13:42;;;;;;;2.58;1.83;;;;;;;15.62;61.85;99675.31;3161009;28;20040;-51
2022/01/17 02:15:16;;;;;;;3.53;1.58;;;;;;;15.60;61.73;99663.97;3161816;28;20051;-52
2022/01/17 02:16:50;;;;;;;4.18;1.85;;;;;;;15.60;61.75;99661.31;3160795;28;20164;-53
2022/01/17 02:18:29;;;;;;;2.45;1.48;;;;;;;15.60;61.86;99663.09;3161611;28;20081;-49
2022/01/17 02:20:07;;;;;;;2.25;1.33;;;;;;;15.57;61.79;99660.75;3162801;28;20617;-48
2022/01/17 02:21:46;;;;;;;2.15;1.30;;;;;;;15.57;61.72;99663.44;3163219;28;20039;-49
2022/01/17 02:23:18;;;;;;;1.40;1.30;;;;;;;15.55;61.97;99655.59;3162013;28;20097;-48
2022/01/17 02:24:49;;;;;;;2.05;1.42;;;;;;;15.54;61.70;99659.22;3163270;28;20051;-52
2022/01/17 02:26:22;;;;;;;1.73;1.25;;;;;;;15.53;61.81;99668.25;3161858;28;20061;-54
2022/01/17 02:27:54;;;;;;;2.25;1.23;;;;;;;15.52;61.87;99671.94;3167060;28;20050;-48
2022/01/17 02:29:26;;;;;;;2.05;1.35;;;;;;;15.51;61.83;99669.41;3165823;28;20118;-50
2022/01/17 02:30:58;;;;;;;2.08;1.60;;;;;;;15.51;61.71;99666.75;3164006;28;20088;-50
2022/01/17 02:32:30;;;;;;;1.77;1.52;;;;;;;15.50;61.80;99673.09;3164505;28;20048;-51
2022/01/17 02:34:03;;;;;;;2.38;1.73;;;;;;;15.49;61.83;99666.06;3164942;28;20562;-52
2022/01/17 02:35:36;;;;;;;2.55;1.63;;;;;;;15.48;61.71;99664.38;3163286;28;20071;-51
2022/01/17 02:37:08;;;;;;;4.32;1.30;;;;;;;15.47;61.85;99663.56;3165605;28;20401;-53
2022/01/17 02:38:41;;;;;;;2.15;1.40;;;;;;;15.45;61.87;99660.19;3166372;28;20035;-49
2022/01/17 02:40:15;;;;;;;2.35;1.77;;;;;;;15.46;61.76;99666.38;3165468;28;20055;-51
2022/01/17 02:41:49;;;;;;;2.97;2.25;;;;;;;15.43;61.91;99667.53;3166377;28;20036;-48
2022/01/17 02:43:21;;;;;;;2.53;1.35;;;;;;;15.44;61.96;99663.03;3163678;28;20505;-51
2022/01/17 02:44:59;;;;;;;3.63;1.40;;;;;;;15.41;61.94;99666.88;3165001;28;20047;-53
2022/01/17 02:46:30;;;;;;;2.42;1.40;;;;;;;15.40;61.82;99671.34;3166885;27;20100;-50
2022/01/17 02:48:06;;;;;;;1.30;1.13;;;;;;;15.39;61.96;99667.00;3167649;28;20119;-50
2022/01/17 02:49:38;;;;;;;1.50;1.25;;;;;;;15.38;61.83;99669.88;3166603;28;20963;-51
2022/01/17 02:51:12;;;;;;;4.47;2.35;;;;;;;15.38;62.04;99664.50;3166400;28;20127;-53
2022/01/17 02:52:44;;;;;;;1.80;1.65;;;;;;;15.36;61.77;99664.66;3162492;28;20078;-49
2022/01/17 02:54:16;;;;;;;4.60;1.20;;;;;;;15.34;61.88;99655.94;3166895;28;20051;-47
2022/01/17 02:55:51;;;;;;;3.47;1.55;;;;;;;15.34;62.04;99655.13;3165651;28;20046;-50
2022/01/17 02:57:25;;;;;;;3.70;1.58;;;;;;;15.33;62.01;99650.78;3165982;28;20116;-50
2022/01/17 02:58:57;;;;;;;3.17;1.50;;;;;;;15.32;61.83;99651.75;3167032;27;20090;-51
2022/01/17 03:00:29;;;;;;;1.83;1.48;;;;;;;15.31;62.00;99650.91;3162778;28;20110;-51
2022/01/17 03:02:03;;;;;;;3.28;1.60;;;;;;;15.32;61.91;99649.09;3157520;28;20039;-51
2022/01/17 03:03:35;;;;;;;3.47;1.83;;;;;;;15.29;62.06;99639.53;3166214;28;20058;-51
2022/01/17 03:05:08;;;;;;;2.38;1.58;;;;;;;15.29;62.05;99647.56;3165617;28;20374;-53
2022/01/17 03:06:42;;;;;;;3.75;1.55;;;;;;;15.29;62.07;99644.88;3164909;28;20065;-52
2022/01/17 03:08:13;;;;;;;2.22;1.35;;;;;;;15.28;62.16;99653.91;3165570;27;20124;-52
2022/01/17 03:09:58;;;;;;;1.83;1.20;;;;;;;15.28;62.21;99656.59;3166209;28;20660;-49
2022/01/17 03:11:29;;;;;;;1.67;1.45;;;;;;;15.26;62.20;99658.56;3163829;28;20078;-53
2022/01/17 03:13:02;;;;;;;1.80;1.30;;;;;;;15.27;62.21;99657.59;3164596;28;20055;-52
2022/01/17 03:14:34;;;;;;;1.20;1.10;;;;;;;15.25;62.28;99654.22;3163942;27;20047;-51
2022/01/17 03:16:12;;;;;;;3.15;1.30;;;;;;;15.24;62.28;99651.69;3165340;28;20901;-51
2022/01/17 03:17:44;;;;;;;2.38;1.40;;;;;;;15.24;62.33;99652.56;3162688;28;20063;-51
2022/01/17 03:19:16;;;;;;;3.78;1.65;;;;;;;15.24;62.20;99649.03;3162950;28;20436;-51
2022/01/17 03:20:47;;;;;;;2.08;1.17;;;;;;;15.23;62.19;99658.88;3164257;28;20056;-51
2022/01/17 03:22:20;;;;;;;1.63;1.20;;;;;;;15.23;62.43;99658.88;3165774;28;20063;-51
2022/01/17 03:23:53;;;;;;;2.53;1.50;;;;;;;15.22;62.39;99657.22;3167059;28;20096;-49
2022/01/17 03:25:24;;;;;;;2.47;1.27;;;;;;;15.22;62.30;99659.06;3166090;28;20040;-52
2022/01/17 03:26:56;;;;;;;2.95;1.67;;;;;;;15.21;62.29;99658.22;3167835;28;20048;-48
2022/01/17 03:28:27;;;;;;;2.10;1.55;;;;;;;15.20;62.32;99661.88;3163235;28;20044;-49
2022/01/17 03:29:59;;;;;;;1.88;1.17;;;;;;;15.20;62.34;99665.38;3165372;28;20051;-51
2022/01/17 03:31:31;;;;;;;1.83;1.60;;;;;;;15.21;62.36;99663.56;3163070;28;20090;-52
2022/01/17 03:33:04;;;;;;;2.08;1.70;;;;;;;15.20;62.39;99661.88;3166267;27;20043;-50
2022/01/17 03:34:38;;;;;;;1.60;1.15;;;;;;;15.19;62.22;99665.56;3163174;28;20052;-56
2022/01/17 03:36:10;;;;;;;2.33;1.77;;;;;;;15.19;62.37;99661.03;3157020;27;20501;-50
2022/01/17 03:37:44;;;;;;;2.53;1.77;;;;;;;15.18;62.21;99655.84;3164259;28;20047;-51
2022/01/17 03:39:17;;;;;;;2.40;1.50;;;;;;;15.18;62.31;99655.84;3165552;27;20059;-53
2022/01/17 03:40:51;;;;;;;6.20;2.83;;;;;;;15.16;62.39;99656.00;3165022;28;20039;-50
2022/01/17 03:42:24;;;;;;;2.67;1.20;;;;;;;15.18;62.22;99661.19;3164220;28;20192;-50
2022/01/17 03:43:55;;;;;;;1.70;1.40;;;;;;;15.15;62.11;99650.81;3165453;28;20054;-52
2022/01/17 03:45:26;;;;;;;1.67;1.20;;;;;;;15.15;62.11;99658.81;3162928;28;20043;-52
2022/01/17 03:46:58;;;;;;;1.77;1.00;;;;;;;15.15;62.38;99653.47;3167069;28;20051;-51
2022/01/17 03:48:31;;;;;;;;;;;;;;;15.14;62.29;99655.31;3165228;28;20685;-50
2022/01/17 03:50:05;;;;;;;2.75;1.75;;;;;;;15.13;62.31;99652.81;3163758;28;19931;-49
2022/01/17 03:51:37;;;;;;;1.27;1.17;;;;;;;15.11;62.23;99650.28;3166362;28;20048;-53
2022/01/17 03:53:10;;;;;;;2.08;1.80;;;;;;;15.12;62.25;99648.44;3163642;28;20606;-52
2022/01/17 03:54:43;;;;;;;3.65;2.03;;;;;;;15.13;62.04;99652.81;3164531;28;20410;-51
2022/01/17 03:56:16;;;;;;;1.90;1.38;;;;;;;15.11;62.20;99644.94;3162179;28;20059;-54
2022/01/17 03:57:47;;;;;;;3.42;1.55;;;;;;;15.11;62.26;99638.78;3155709;28;20043;-50
2022/01/17 03:59:18;;;;;;;2.08;1.77;;;;;;;15.09;62.28;99638.91;3165171;28;20054;-49
2022/01/17 04:00:50;;;;;;;1.25;1.08;;;;;;;15.09;62.20;99638.91;3162654;28;20046;-53
2022/01/17 04:02:22;;;;;;;2.88;1.35;;;;;;;15.10;62.10;99647.75;3163259;28;20048;-52
2022/01/17 04:03:53;;;;;;;2.95;1.50;;;;;;;15.08;62.26;99647.94;3165345;28;20078;-53
2022/01/17 04:05:26;;;;;;;1.77;1.38;;;;;;;15.09;62.26;99640.75;3159378;28;20101;-53
2022/01/17 04:06:57;;;;;;;2.95;1.20;;;;;;;15.07;62.29;99653.41;3165513;28;20062;-52
2022/01/17 04:08:31;;;;;;;1.83;1.30;;;;;;;15.07;62.13;99640.06;3163752;28;20491;-51
2022/01/17 04:10:03;;;;;;;2.75;1.73;;;;;;;15.07;62.26;99650.75;3160963;28;20749;-53
2022/01/17 04:11:36;;;;;;;2.53;1.40;;;;;;;15.07;62.10;99656.97;3161790;28;20059;-53
2022/01/17 04:13:09;;;;;;;1.48;1.20;;;;;;;15.07;62.07;99656.09;3164434;28;20051;-53
2022/01/17 04:14:41;;;;;;;2.53;1.70;;;;;;;15.06;62.23;99649.09;3164417;27;20043;-51
2022/01/17 04:16:13;;;;;;;3.22;1.30;;;;;;;15.05;62.17;99653.59;3163293;28;20341;-50
2022/01/17 04:17:44;;;;;;;2.20;1.48;;;;;;;15.04;62.20;99645.72;3164392;28;20043;-52
2022/01/17 04:19:18;;;;;;;3.47;1.45;;;;;;;15.04;62.28;99643.03;3158426;28;20039;-51
2022/01/17 04:20:50;;;;;;;1.17;1.05;;;;;;;15.03;62.01;99638.72;3165917;28;20100;-52
2022/01/17 04:22:22;;;;;;;1.65;1.17;;;;;;;15.03;62.20;99644.06;3165026;28;20081;-48
2022/01/17 04:23:55;;;;;;;2.35;1.30;;;;;;;15.03;62.16;99638.72;3166285;28;20124;-53
2022/01/17 04:25:30;;;;;;;1.75;1.15;;;;;;;15.02;62.12;99637.03;3162707;28;20054;-51
2022/01/17 04:27:02;;;;;;;1.92;1.60;;;;;;;15.00;62.16;99631.00;3163642;28;20059;-49
2022/01/17 04:28:35;;;;;;;2.30;1.60;;;;;;;15.01;62.03;99630.84;3165734;28;20055;-49
2022/01/17 04:30:07;;;;;;;2.53;1.35;;;;;;;14.99;62.13;99630.19;3164678;28;20493;-50
2022/01/17 04:31:39;;;;;;;3.22;1.42;;;;;;;15.00;61.79;99628.34;3164859;28;20048;-53
2022/01/17 04:33:11;;;;;;;1.30;1.15;;;;;;;14.98;62.08;99615.97;3165001;28;20105;-49
2022/01/17 04:34:42;;;;;;;1.95;1.40;;;;;;;14.97;62.09;99618.81;3165200;28;20104;-51
2022/01/17 04:36:14;;;;;;;2.30;1.63;;;;;;;14.97;62.03;99618.81;3162664;27;20052;-48
2022/01/17 04:37:45;;;;;;;1.48;0.93;;;;;;;14.97;62.25;99624.16;3165686;28;20297;-49
2022/01/17 04:39:18;;;;;;;2.20;1.37;;;;;;;14.97;61.94;99624.16;3164249;28;20998;-48
2022/01/17 04:41:01;;;;;;;1.48;1.20;;;;;;;14.95;62.14;99626.97;3165396;28;20281;-53
2022/01/17 04:42:34;;;;;;;3.85;1.85;;;;;;;14.94;62.17;99625.28;3164816;28;20067;-47
2022/01/17 04:45:52;;;;;;;2.28;1.42;;;;;;;14.95;62.01;99636.81;3164325;28;20039;-50
2022/01/17 04:47:24;;;;;;;1.63;1.00;;;;;;;14.94;62.24;99624.47;3164940;28;20048;-51
2022/01/17 04:48:58;;;;;;;1.50;0.93;;;;;;;14.93;62.32;99625.44;3163105;28;20039;-50
2022/01/17 04:50:30;;;;;;;1.23;0.90;;;;;;;14.92;62.28;99621.94;3162949;28;20040;-51
2022/01/17 04:52:02;;;;;;;2.10;1.58;;;;;;;14.92;62.33;99632.63;3161544;28;20146;-50
2022/01/17 04:53:34;;;;;;;2.35;0.98;;;;;;;14.92;62.34;99632.63;3165874;28;20050;-54
2022/01/17 04:55:10;;;;;;;2.03;1.20;;;;;;;14.92;62.37;99637.94;3164547;28;20051;-50
2022/01/17 04:56:42;;;;;;;1.77;1.13;;;;;;;14.93;62.37;99644.13;3166112;28;20047;-53
2022/01/17 04:58:15;;;;;;;2.40;1.35;;;;;;;14.93;62.49;99654.81;3164685;28;20051;-53
2022/01/17 04:59:46;;;;;;;2.40;1.20;;;;;;;14.92;62.27;99651.31;3165180;28;20543;-52
2022/01/17 05:01:18;;;;;;;3.80;1.70;;;;;;;14.93;62.33;99650.34;3162452;28;20100;-51
2022/01/17 05:02:50;;;;;;;;;;;;;;;14.92;62.38;99645.97;3167105;28;20051;-50
2022/01/17 05:04:21;;;;;;;;;;;;;;;14.93;62.22;99639.66;3165931;28;19919;-52
2022/01/17 05:05:53;;;;;;;1.85;1.10;;;;;;;14.94;62.34;99640.47;3164629;27;19983;-52
2022/01/17 05:07:24;;;;;;;3.55;1.50;;;;;;;14.96;62.41;99650.03;3164404;28;20576;-53
2022/01/17 05:08:56;;;;;;;2.88;1.83;;;;;;;14.99;62.49;99656.91;3166134;28;20099;-53
2022/01/17 05:10:30;;;;;;;1.40;1.30;;;;;;;15.05;62.23;99663.44;3163197;28;20055;-52
2022/01/17 05:12:01;;;;;;;2.67;1.30;;;;;;;15.09;62.30;99667.47;3165833;27;20048;-51
2022/01/17 05:13:35;;;;;;;1.40;0.88;;;;;;;15.16;62.13;99672.03;3159074;28;20664;-52
2022/01/17 05:15:16;;;;;;;3.45;1.13;;;;;;;15.23;62.20;99666.91;3160666;28;20048;-54
2022/01/17 05:16:52;;;;;;;2.40;1.48;;;;;;;15.30;62.11;99672.47;3165888;28;20097;-52
2022/01/17 05:19:48;;;;;;;3.22;1.20;;;;;;;15.35;62.25;99671.00;3162692;28;20051;-51
2022/01/17 05:20:16;;;;;;;1.00;0.93;;;;;;;15.41;61.86;99670.38;3163498;28;20047;-51
2022/01/17 05:21:48;;;;;;;1.47;1.00;;;;;;;15.49;61.92;99674.06;3166045;27;20048;-49
2022/01/17 05:23:19;;;;;;;1.10;1.00;;;;;;;15.53;61.60;99668.25;3163842;28;20054;-54
2022/01/17 05:24:51;;;;;;;1.60;1.02;;;;;;;15.59;61.61;99662.28;3165363;27;20052;-54
2022/01/17 05:26:24;;;;;;;3.00;1.50;;;;;;;15.65;61.64;99666.97;3163705;28;20051;-54
2022/01/17 05:27:56;;;;;;;1.65;1.25;;;;;;;15.70;61.49;99661.19;3165042;28;20104;-49
2022/01/17 05:29:28;;;;;;;1.73;1.63;;;;;;;15.74;61.36;99659.03;3162788;28;20510;-51
2022/01/17 05:31:00;;;;;;;1.55;1.45;;;;;;;15.80;61.29;99658.41;3161046;28;20055;-52
2022/01/17 05:32:32;;;;;;;2.83;1.40;;;;;;;15.85;61.20;99667.63;3163655;28;20046;-49
2022/01/17 05:34:04;;;;;;;1.83;1.15;;;;;;;15.91;61.15;99667.97;3163479;28;20147;-54
2022/01/17 05:35:36;;;;;;;1.70;1.48;;;;;;;15.95;61.21;99669.34;3164951;28;20100;-52
2022/01/17 05:37:09;;;;;;;2.58;1.35;;;;;;;15.99;61.05;99668.00;3164813;28;20066;-54
2022/01/17 05:38:40;;;;;;;1.10;0.85;;;;;;;16.03;61.06;99667.53;3162076;28;20082;-51
2022/01/17 05:40:15;;;;;;;2.85;1.30;;;;;;;16.04;61.01;99665.69;3164441;28;20058;-51
2022/01/17 05:41:48;;;;;;;1.10;0.77;;;;;;;16.07;60.97;99670.72;3165478;28;20068;-51
2022/01/17 05:43:20;;;;;;;1.77;1.00;;;;;;;16.09;60.95;99664.19;3163302;28;20055;-51
2022/01/17 05:44:52;;;;;;;2.75;1.13;;;;;;;16.12;60.92;99662.22;3164534;28;20047;-49
2022/01/17 05:46:25;;;;;;;1.48;1.02;;;;;;;16.15;60.93;99669.91;3164779;28;20126;-52
2022/01/17 05:47:57;;;;;;;1.13;1.02;;;;;;;16.17;60.84;99671.44;3158732;28;20052;-54
2022/01/17 05:49:29;;;;;;;2.47;1.50;;;;;;;16.19;60.96;99672.13;3161145;28;20048;-49
2022/01/17 05:51:01;;;;;;;1.45;1.00;;;;;;;16.22;60.67;99658.41;3162665;28;20620;-54
2022/01/17 05:52:34;;;;;;;1.67;1.10;;;;;;;16.25;60.67;99663.44;3164785;28;20051;-54
2022/01/17 05:54:06;;;;;;;2.88;1.63;;;;;;;16.29;60.72;99663.94;3165215;28;20684;-50
2022/01/17 05:55:39;;;;;;;1.13;1.02;;;;;;;16.32;60.70;99663.59;3162735;28;20089;-47
2022/01/17 05:57:12;;;;;;;2.78;1.77;;;;;;;16.35;60.48;99667.78;3161817;28;20150;-49
2022/01/17 05:58:44;;;;;;;1.80;0.90;;;;;;;16.38;60.54;99646.91;3164699;28;20040;-51
2022/01/17 06:00:18;;;;;;;0.85;0.70;;;;;;;16.42;60.40;99647.41;3163913;28;20065;-54
2022/01/17 06:01:50;;;;;;;1.48;0.95;;;;;;;16.46;60.44;99660.28;3164403;28;20119;-53
2022/01/17 06:03:21;;;;;;;1.08;1.02;;;;;;;16.49;60.41;99667.16;3161816;28;20109;-54
2022/01/17 06:04:53;;;;;;;1.45;1.27;;;;;;;16.49;60.27;99667.16;3164232;28;20055;-53
2022/01/17 06:06:25;;;;;;;1.85;1.30;;;;;;;16.51;60.29;99657.13;3160838;28;20093;-54
2022/01/17 06:07:57;;;;;;;1.73;1.40;;;;;;;16.51;60.33;99654.44;3163619;28;20107;-52
2022/01/17 06:09:29;;;;;;;0.80;0.70;;;;;;;16.53;60.42;99655.94;3161167;28;20646;-48
2022/01/17 06:11:01;;;;;;;1.77;1.05;;;;;;;16.53;60.27;99653.28;3164797;28;20522;-48
2022/01/17 06:12:34;;;;;;;1.75;1.25;;;;;;;16.56;60.42;99652.09;3164489;28;20040;-54
2022/01/17 06:14:06;;;;;;;1.88;1.42;;;;;;;16.56;60.28;99649.44;3163957;28;20459;-52
2022/01/17 06:15:39;;;;;;;1.10;0.80;;;;;;;16.59;60.18;99646.41;3160812;28;20051;-51
2022/01/17 06:17:10;;;;;;;1.83;0.90;;;;;;;16.60;60.23;99650.75;3163764;28;20060;-50
2022/01/17 06:18:42;;;;;;;1.13;0.85;;;;;;;16.60;60.24;99664.16;3165509;28;20089;-50
2022/01/17 06:20:15;;;;;;;1.77;1.25;;;;;;;16.61;60.29;99662.34;3164631;28;20093;-52
2022/01/17 06:21:46;;;;;;;0.95;0.85;;;;;;;16.62;60.11;99664.00;3162668;28;20047;-51
2022/01/17 06:23:18;;;;;;;1.20;0.90;;;;;;;16.62;60.13;99659.47;3162450;28;20059;-51
2022/01/17 06:24:50;;;;;;;2.05;1.15;;;;;;;16.62;60.17;99664.00;3164441;28;20059;-54
2022/01/17 06:26:22;;;;;;;1.70;1.13;;;;;;;16.62;60.20;99656.78;3160836;28;20044;-53
2022/01/17 06:27:55;;;;;;;1.65;1.55;;;;;;;16.62;60.14;99655.97;3165681;28;20040;-52
2022/01/17 06:29:27;;;;;;;1.40;1.10;;;;;;;16.61;60.34;99656.97;3161341;28;20043;-53
2022/01/17 06:30:59;;;;;;;2.10;1.02;;;;;;;16.62;60.17;99654.13;3164844;28;20101;-50
2022/01/17 06:32:31;;;;;;;1.15;1.05;;;;;;;16.62;60.15;99647.94;3164310;28;20128;-52
2022/01/17 06:34:03;;;;;;;1.73;1.10;;;;;;;16.63;60.14;99652.28;3163110;28;20063;-55
2022/01/17 06:35:35;;;;;;;1.30;1.10;;;;;;;16.63;60.05;99660.31;3163552;28;20051;-48
2022/01/17 06:37:07;;;;;;;1.33;0.90;;;;;;;16.61;60.13;99654.28;3163203;28;20055;-52
2022/01/17 06:38:39;;;;;;;1.85;1.25;;;;;;;16.61;60.06;99660.47;3165843;28;20059;-52
2022/01/17 06:40:12;;;;;;;1.55;1.05;;;;;;;16.62;60.19;99647.94;3163296;28;20524;-53
2022/01/17 06:41:43;;;;;;;0.85;0.80;;;;;;;16.60;60.10;99653.44;3164771;28;20504;-51
2022/01/17 06:43:17;;;;;;;1.23;1.13;;;;;;;16.61;60.06;99656.97;3161657;28;20052;-52
2022/01/17 06:44:49;;;;;;;1.55;0.98;;;;;;;16.60;60.20;99653.44;3163620;28;20073;-55
2022/01/17 06:46:21;;;;;;;1.38;1.13;;;;;;;16.59;60.22;99651.78;3164359;28;20051;-54
2022/01/17 06:47:53;;;;;;;2.92;1.20;;;;;;;16.58;60.07;99650.09;3165484;28;20051;-56
2022/01/17 06:49:25;;;;;;;1.40;1.30;;;;;;;16.57;60.24;99659.13;3157168;28;20134;-55
2022/01/17 06:50:58;;;;;;;1.00;0.77;;;;;;;16.57;60.13;99661.81;3155499;28;20059;-48
2022/01/17 06:52:29;;;;;;;1.40;1.15;;;;;;;16.54;60.11;99660.28;3160852;28;20677;-53
2022/01/17 06:54:01;;;;;;;1.63;1.20;;;;;;;16.53;60.26;99669.34;3162987;28;20052;-52
2022/01/17 06:55:33;;;;;;;3.50;1.10;;;;;;;16.54;60.18;99678.19;3161008;28;20039;-52
2022/01/17 06:57:05;;;;;;;1.92;0.80;;;;;;;16.53;60.23;99672.00;3159212;28;20040;-54
2022/01/17 06:58:40;;;;;;;1.20;0.80;;;;;;;16.54;60.20;99665.66;3154109;28;20115;-56
2022/01/17 07:00:14;;;;;;;0.75;0.70;;;;;;;16.52;60.23;99656.97;3157095;28;20044;-54
2022/01/17 07:01:46;;;;;;;1.35;0.88;;;;;;;16.53;60.22;99660.47;3157767;28;20504;-49
2022/01/17 07:03:18;;;;;;;1.10;0.80;;;;;;;16.53;60.11;99663.16;3158345;28;20586;-52
2022/01/17 07:04:50;;;;;;;1.65;0.93;;;;;;;16.54;60.27;99665.66;3159465;28;20260;-50
2022/01/17 07:06:21;;;;;;;0.82;0.80;;;;;;;16.53;60.11;99671.19;3157925;28;20074;-51
2022/01/17 07:07:54;;;;;;;1.00;0.68;;;;;;;16.54;60.23;99671.00;3159889;27;20101;-54
2022/01/17 07:09:26;;;;;;;1.05;0.95;;;;;;;16.56;60.17;99681.56;3156734;28;20582;-52
2022/01/17 07:10:59;;;;;;;2.15;0.80;;;;;;;16.55;60.37;99695.97;3160243;27;20055;-54
2022/01/17 07:12:30;;;;;;;2.85;1.30;;;;;;;16.55;60.31;99695.97;3161122;28;20187;-48
2022/01/17 07:14:04;;;;;;;2.55;1.00;;;;;;;16.55;60.11;99704.00;3160177;27;21273;-56
2022/01/17 07:15:36;;;;;;;1.00;0.90;;;;;;;16.56;60.30;99705.66;3161527;28;20108;-55
2022/01/17 07:17:08;;;;;;;1.83;1.60;;;;;;;16.53;60.28;99701.47;3161554;27;20051;-51
2022/01/17 07:18:39;;;;;;;1.40;1.30;;;;;;;16.53;60.27;99708.69;3160275;28;20055;-53
2022/01/17 07:20:12;;;;;;;1.58;0.93;;;;;;;16.52;60.33;99717.72;3161068;27;20766;-49
2022/01/17 07:21:44;;;;;;;1.02;0.80;;;;;;;16.54;60.33;99702.31;3160357;28;20043;-55
2022/01/17 07:23:16;;;;;;;1.67;1.40;;;;;;;16.52;60.28;99704.34;3162405;27;20048;-54
2022/01/17 07:24:48;;;;;;;1.63;1.45;;;;;;;16.51;60.27;99689.25;3163628;28;20044;-53
2022/01/17 07:26:20;;;;;;;1.42;1.30;;;;;;;16.53;60.31;99704.16;3161736;27;20059;-53